Dunton, Colorado
Current Conditions -  °F | °C
As of 8:53 PM on Thursday 18 Dec 2014 (Local Time) from KCEZ Reporting Station
Clear Clear  
Wind Chill: 23°   Ceiling: Unl
Heat Index: 28°   Visibility: 10mi
Dew Point: 25°   Wind: 5mph
Humidity: 88%   Direction: 60°ENE
Pressure: 30.17"   Gusts: NA
Location:  37.5429°N, 108.35°W
Report Text: KCEZ 190353Z AUTO 06004KT 10SM CLR M02/M04 A3017 RMK AO2 SLP222 T10221039
Loading
Personal Weather Stations






























Interactive Weather Map New forecast layout! Learn more

10-Day Weather Forecast

Advertisements
Track Severe Weather on mobile